Time;durP1;ratioP1;P1;durP2;ratioP2;P2;SDS_P1;SDS_P2;PMS_P1;PMS_P2;Temp;Humidity;BMP_temperature;BMP_pressure;BME280_temperature;BME280_humidity;BME280_pressure;Samples;Min_cycle;Max_cycle;Signal;HPM_P1;HPM_P2
2023/08/01 00:00:01;;;;;;;10.33;7.87;;;;;;;;;;5081006;28;20469;-82
2023/08/01 00:02:27;;;;;;;9.63;8.57;;;;;;;;;;5080687;28;20474;-81
2023/08/01 00:04:53;;;;;;;9.73;7.20;;;;;;;;;;5083014;28;20846;-80
2023/08/01 00:07:20;;;;;;;8.13;6.43;;;;;;;;;;5082405;28;20511;-81
2023/08/01 00:09:46;;;;;;;9.00;7.50;;;;;;;;;;5079954;28;20462;-81
2023/08/01 00:12:12;;;;;;;10.27;8.90;;;;;;;;;;5083405;28;20501;-81
2023/08/01 00:14:39;;;;;;;10.07;7.50;;;;;;;;;;5083050;28;20446;-81
2023/08/01 00:17:06;;;;;;;12.00;9.43;;;;;;;;;;5080415;28;20465;-82
2023/08/01 00:19:33;;;;;;;10.13;9.10;;;;;;;;;;5081649;28;20442;-81
2023/08/01 00:22:00;;;;;;;12.53;10.00;;;;;;;;;;5081573;28;20467;-82
2023/08/01 00:24:27;;;;;;;10.87;9.40;;;;;;;;;;5082287;28;20928;-81
2023/08/01 00:26:55;;;;;;;14.00;9.50;;;;;;;;;;5079772;28;20465;-81
2023/08/01 00:29:21;;;;;;;11.00;9.63;;;;;;;;;;5082471;28;20484;-81
2023/08/01 00:31:48;;;;;;;11.37;10.20;;;;;;;;;;5081968;28;20986;-81
2023/08/01 00:34:15;;;;;;;10.90;9.80;;;;;;;;;;5079899;28;20659;-81
2023/08/01 00:36:42;;;;;;;12.10;10.73;;;;;;;;;;5081099;28;20811;-82
2023/08/01 00:39:09;;;;;;;15.10;10.33;;;;;;;;;;5080721;28;20459;-81
2023/08/01 00:41:35;;;;;;;14.13;11.80;;;;;;;;;;5083967;28;20559;-81
2023/08/01 00:44:02;;;;;;;11.97;10.70;;;;;;;;;;5081736;28;20478;-81
2023/08/01 00:46:28;;;;;;;16.20;11.40;;;;;;;;;;5081525;28;20950;-81
2023/08/01 00:48:57;;;;;;;14.33;11.90;;;;;;;;;;5081929;28;20498;-82
2023/08/01 00:51:26;;;;;;;16.37;12.10;;;;;;;;;;5080712;28;20457;-81
2023/08/01 00:53:53;;;;;;;15.50;12.13;;;;;;;;;;5080845;28;20475;-81
2023/08/01 00:56:19;;;;;;;14.60;12.53;;;;;;;;;;5082112;28;20463;-81
2023/08/01 00:58:46;;;;;;;12.80;11.50;;;;;;;;;;5080496;28;20470;-81
2023/08/01 01:01:12;;;;;;;15.57;11.50;;;;;;;;;;5080935;28;20465;-81
2023/08/01 01:03:39;;;;;;;13.20;11.60;;;;;;;;;;5079383;28;20481;-81
2023/08/01 01:06:10;;;;;;;14.47;13.07;;;;;;;;;;5082771;28;20477;-81
2023/08/01 01:08:38;;;;;;;12.60;11.40;;;;;;;;;;5079963;28;20871;-81
2023/08/01 01:11:04;;;;;;;14.33;12.33;;;;;;;;;;5079800;28;20473;-81
2023/08/01 01:13:30;;;;;;;14.13;12.60;;;;;;;;;;5079050;28;20481;-81
2023/08/01 01:15:57;;;;;;;14.07;11.40;;;;;;;;;;5081754;28;20442;-81
2023/08/01 01:18:24;;;;;;;15.43;11.20;;;;;;;;;;5080014;28;20843;-82
2023/08/01 01:20:52;;;;;;;12.33;11.10;;;;;;;;;;5081415;28;20458;-81
2023/08/01 01:23:19;;;;;;;17.77;12.13;;;;;;;;;;5079952;28;20474;-81
2023/08/01 01:25:46;;;;;;;16.90;12.40;;;;;;;;;;5078869;28;20458;-81
2023/08/01 01:28:13;;;;;;;18.50;12.63;;;;;;;;;;5080121;28;20969;-81
2023/08/01 01:30:40;;;;;;;14.80;11.97;;;;;;;;;;5083160;28;20462;-81
2023/08/01 01:33:07;;;;;;;14.53;11.53;;;;;;;;;;5080519;28;20475;-81
2023/08/01 01:35:34;;;;;;;15.60;12.97;;;;;;;;;;5081273;28;21024;-81
2023/08/01 01:38:03;;;;;;;13.20;11.80;;;;;;;;;;5081973;28;20569;-81
2023/08/01 01:40:30;;;;;;;15.90;12.33;;;;;;;;;;5077888;28;20460;-81
2023/08/01 01:42:56;;;;;;;14.40;11.83;;;;;;;;;;5078708;28;20490;-81
2023/08/01 01:45:23;;;;;;;15.27;11.90;;;;;;;;;;5081413;28;20462;-81
2023/08/01 01:47:50;;;;;;;14.87;12.00;;;;;;;;;;5079611;28;20485;-82
2023/08/01 01:50:17;;;;;;;13.23;11.80;;;;;;;;;;5080500;28;20462;-81
2023/08/01 01:52:44;;;;;;;17.33;11.70;;;;;;;;;;5079373;28;20490;-81
2023/08/01 01:55:11;;;;;;;13.23;11.90;;;;;;;;;;5080371;28;20499;-81
2023/08/01 01:57:38;;;;;;;14.17;11.70;;;;;;;;;;5081096;28;20489;-82
2023/08/01 02:00:04;;;;;;;14.93;11.23;;;;;;;;;;5076804;28;20536;-81
2023/08/01 02:02:30;;;;;;;15.67;10.57;;;;;;;;;;5081919;28;20497;-81
2023/08/01 02:04:57;;;;;;;13.77;10.87;;;;;;;;;;5080569;28;20472;-81
2023/08/01 02:07:25;;;;;;;16.57;10.77;;;;;;;;;;5081206;28;20476;-81
2023/08/01 02:09:51;;;;;;;14.67;10.63;;;;;;;;;;5079151;28;21085;-81
2023/08/01 02:12:19;;;;;;;12.60;9.57;;;;;;;;;;5076940;28;20840;-81
2023/08/01 02:14:46;;;;;;;13.57;10.50;;;;;;;;;;5079660;28;20474;-81
2023/08/01 02:17:12;;;;;;;12.60;9.63;;;;;;;;;;5080616;28;20469;-82
2023/08/01 02:19:38;;;;;;;12.87;10.17;;;;;;;;;;5079265;28;20484;-81
2023/08/01 02:22:05;;;;;;;13.47;10.40;;;;;;;;;;5085033;28;20834;-82
2023/08/01 02:24:31;;;;;;;15.43;10.73;;;;;;;;;;5084208;28;20442;-81
2023/08/01 02:26:58;;;;;;;13.07;10.17;;;;;;;;;;5083849;28;20442;-82
2023/08/01 02:29:26;;;;;;;16.10;11.47;;;;;;;;;;5082848;28;20496;-81
2023/08/01 02:31:52;;;;;;;16.43;11.27;;;;;;;;;;5085648;28;20454;-81
2023/08/01 02:34:19;;;;;;;13.43;10.00;;;;;;;;;;5083116;28;20472;-81
2023/08/01 02:36:45;;;;;;;13.43;11.13;;;;;;;;;;5083491;28;20449;-81
2023/08/01 02:39:12;;;;;;;12.17;9.53;;;;;;;;;;5084051;28;20473;-81
2023/08/01 02:41:38;;;;;;;13.60;10.70;;;;;;;;;;5085883;28;20479;-81
2023/08/01 02:44:05;;;;;;;12.33;10.80;;;;;;;;;;5084013;28;20482;-81
2023/08/01 02:46:32;;;;;;;16.20;10.53;;;;;;;;;;5085392;28;20446;-81
2023/08/01 02:48:59;;;;;;;15.33;10.50;;;;;;;;;;5082050;28;20477;-81
2023/08/01 02:51:25;;;;;;;16.73;9.77;;;;;;;;;;5083862;28;20458;-81
2023/08/01 02:53:51;;;;;;;13.57;10.50;;;;;;;;;;5082584;28;20470;-81
2023/08/01 02:56:18;;;;;;;12.50;9.40;;;;;;;;;;5082576;28;20459;-81
2023/08/01 02:58:45;;;;;;;10.93;8.30;;;;;;;;;;5083377;28;20474;-81
2023/08/01 03:01:13;;;;;;;10.33;7.33;;;;;;;;;;5084135;28;20466;-81
2023/08/01 03:03:41;;;;;;;7.53;6.20;;;;;;;;;;5083128;28;20544;-82
2023/08/01 03:06:07;;;;;;;9.83;6.80;;;;;;;;;;5080207;28;20538;-81
2023/08/01 03:08:35;;;;;;;8.33;5.00;;;;;;;;;;5084490;28;21031;-81
2023/08/01 03:11:02;;;;;;;7.23;6.53;;;;;;;;;;5082706;28;20837;-81
2023/08/01 03:13:28;;;;;;;11.00;5.23;;;;;;;;;;5082486;28;20486;-81
2023/08/01 03:15:55;;;;;;;7.43;4.80;;;;;;;;;;5082786;28;20454;-81
2023/08/01 03:18:21;;;;;;;4.60;4.00;;;;;;;;;;5082118;28;20466;-81
2023/08/01 03:20:49;;;;;;;10.50;5.20;;;;;;;;;;5082124;28;20993;-81
2023/08/01 03:23:15;;;;;;;6.47;4.07;;;;;;;;;;5082873;28;20856;-81
2023/08/01 03:25:43;;;;;;;8.20;4.27;;;;;;;;;;5080138;28;20471;-81
2023/08/01 03:28:10;;;;;;;8.30;4.70;;;;;;;;;;5081209;28;20474;-81
2023/08/01 03:30:36;;;;;;;5.83;4.60;;;;;;;;;;5081331;28;20482;-81
2023/08/01 03:33:03;;;;;;;7.60;5.47;;;;;;;;;;5080615;28;20581;-81
2023/08/01 03:35:29;;;;;;;5.30;4.80;;;;;;;;;;5085876;28;20494;-81
2023/08/01 03:37:57;;;;;;;8.60;6.90;;;;;;;;;;5082040;28;20478;-81
2023/08/01 03:40:24;;;;;;;9.00;5.83;;;;;;;;;;5085238;28;20451;-81
2023/08/01 03:42:52;;;;;;;7.40;6.40;;;;;;;;;;5082848;28;20477;-81
2023/08/01 03:45:18;;;;;;;12.67;9.30;;;;;;;;;;5081557;28;20465;-81
2023/08/01 03:47:45;;;;;;;13.53;9.17;;;;;;;;;;5082670;28;20466;-81
2023/08/01 03:50:13;;;;;;;12.93;10.07;;;;;;;;;;5065274;28;20480;-81
2023/08/01 03:52:40;;;;;;;16.60;11.80;;;;;;;;;;5081511;28;20560;-81
2023/08/01 03:55:08;;;;;;;12.63;11.30;;;;;;;;;;5081948;28;20852;-81
2023/08/01 03:57:34;;;;;;;18.33;13.90;;;;;;;;;;5081256;28;20468;-80
2023/08/01 04:00:01;;;;;;;20.20;15.60;;;;;;;;;;5082336;28;20970;-81
2023/08/01 04:02:27;;;;;;;21.23;14.50;;;;;;;;;;5082761;28;20466;-81
2023/08/01 04:04:54;;;;;;;17.80;15.00;;;;;;;;;;5080504;28;20489;-81
2023/08/01 04:07:21;;;;;;;21.20;14.80;;;;;;;;;;5080390;28;20470;-81
2023/08/01 04:09:48;;;;;;;22.50;15.20;;;;;;;;;;5080132;28;20481;-81
2023/08/01 04:12:16;;;;;;;26.77;17.90;;;;;;;;;;5081572;28;20492;-81
2023/08/01 04:14:43;;;;;;;21.90;16.57;;;;;;;;;;5078664;28;20836;-81
2023/08/01 04:17:10;;;;;;;20.43;14.60;;;;;;;;;;5081071;28;20552;-81
2023/08/01 04:19:37;;;;;;;9.60;7.57;;;;;;;;;;5081658;28;20431;-81
2023/08/01 04:22:03;;;;;;;7.63;6.80;;;;;;;;;;5080451;28;20481;-83
2023/08/01 04:24:30;;;;;;;9.67;8.67;;;;;;;;;;5083195;28;20457;-81
2023/08/01 04:26:57;;;;;;;10.47;7.97;;;;;;;;;;5081359;28;21013;-81
2023/08/01 04:29:24;;;;;;;13.67;7.93;;;;;;;;;;5081683;28;20478;-81
2023/08/01 04:31:51;;;;;;;9.53;7.80;;;;;;;;;;5081308;28;20495;-82
2023/08/01 04:34:17;;;;;;;8.40;7.50;;;;;;;;;;5081381;28;20479;-81
2023/08/01 04:36:43;;;;;;;10.40;7.87;;;;;;;;;;5081210;28;20470;-80
2023/08/01 04:39:10;;;;;;;6.90;6.20;;;;;;;;;;5081270;28;20895;-81
2023/08/01 04:41:36;;;;;;;16.57;6.80;;;;;;;;;;5081637;28;20477;-81
2023/08/01 04:44:03;;;;;;;8.20;6.10;;;;;;;;;;5081311;28;20482;-81
2023/08/01 04:46:31;;;;;;;8.93;6.07;;;;;;;;;;5080182;28;20465;-82
2023/08/01 04:48:57;;;;;;;8.93;5.60;;;;;;;;;;5077449;28;20474;-81
2023/08/01 04:51:24;;;;;;;8.63;5.73;;;;;;;;;;5082894;28;20465;-82
2023/08/01 04:53:50;;;;;;;8.80;5.73;;;;;;;;;;5078857;28;21041;-81
2023/08/01 04:56:16;;;;;;;6.20;5.60;;;;;;;;;;5080326;28;20462;-82
2023/08/01 04:58:43;;;;;;;7.47;6.50;;;;;;;;;;5077510;28;20471;-82
2023/08/01 05:01:09;;;;;;;10.23;7.00;;;;;;;;;;5080696;28;20488;-81
2023/08/01 05:03:38;;;;;;;10.47;6.70;;;;;;;;;;5081134;28;20485;-81
2023/08/01 05:06:06;;;;;;;11.03;6.90;;;;;;;;;;5079499;28;20465;-81
2023/08/01 05:08:34;;;;;;;8.40;7.30;;;;;;;;;;5081786;28;20849;-81
2023/08/01 05:11:00;;;;;;;12.30;8.57;;;;;;;;;;5081503;28;20478;-81
2023/08/01 05:13:27;;;;;;;9.17;7.43;;;;;;;;;;5078307;28;20473;-81
2023/08/01 05:15:53;;;;;;;14.50;10.63;;;;;;;;;;5078560;28;20535;-81
2023/08/01 05:18:20;;;;;;;12.30;8.00;;;;;;;;;;5081337;28;20474;-81
2023/08/01 05:20:47;;;;;;;10.67;8.60;;;;;;;;;;5082228;28;20455;-81
2023/08/01 05:23:14;;;;;;;12.60;8.50;;;;;;;;;;5080145;28;20479;-81
2023/08/01 05:25:40;;;;;;;12.60;9.53;;;;;;;;;;5078916;28;20462;-81
2023/08/01 05:28:06;;;;;;;9.93;8.07;;;;;;;;;;5079959;28;20474;-81
2023/08/01 05:30:33;;;;;;;9.50;8.20;;;;;;;;;;5078431;28;20470;-81
2023/08/01 05:33:00;;;;;;;10.13;9.10;;;;;;;;;;5080929;28;20484;-81
2023/08/01 05:35:26;;;;;;;10.83;7.97;;;;;;;;;;5081893;28;20458;-81
2023/08/01 05:37:53;;;;;;;12.40;9.23;;;;;;;;;;5081169;28;20574;-81
2023/08/01 05:40:19;;;;;;;9.93;8.50;;;;;;;;;;5080626;28;20479;-81
2023/08/01 05:42:46;;;;;;;11.37;8.53;;;;;;;;;;5078949;28;20475;-81
2023/08/01 05:45:12;;;;;;;12.33;8.83;;;;;;;;;;5079216;28;21246;-81
2023/08/01 05:47:40;;;;;;;10.87;7.60;;;;;;;;;;5080019;28;20470;-81
2023/08/01 05:50:06;;;;;;;13.90;8.83;;;;;;;;;;5079866;28;20891;-81
2023/08/01 05:52:33;;;;;;;11.20;8.87;;;;;;;;;;5080975;28;20494;-81
2023/08/01 05:55:00;;;;;;;22.50;9.80;;;;;;;;;;5079518;28;20455;-81
2023/08/01 05:57:27;;;;;;;19.93;9.90;;;;;;;;;;5084051;28;20851;-82
2023/08/01 05:59:53;;;;;;;11.80;9.80;;;;;;;;;;5085054;28;20443;-81
2023/08/01 06:02:19;;;;;;;14.83;9.40;;;;;;;;;;5085114;28;20459;-81
2023/08/01 06:04:46;;;;;;;13.87;9.77;;;;;;;;;;5085430;28;20435;-81
2023/08/01 06:07:12;;;;;;;15.07;9.40;;;;;;;;;;5084265;28;21031;-81
2023/08/01 06:09:39;;;;;;;12.90;10.53;;;;;;;;;;5082285;28;21175;-81
2023/08/01 06:12:07;;;;;;;12.37;10.33;;;;;;;;;;5084672;28;20971;-81
2023/08/01 06:14:33;;;;;;;16.57;10.03;;;;;;;;;;5082015;28;20447;-81
2023/08/01 06:17:00;;;;;;;13.07;9.90;;;;;;;;;;5084255;28;20504;-82
2023/08/01 06:19:26;;;;;;;16.23;11.50;;;;;;;;;;5086114;28;20822;-81
2023/08/01 06:21:53;;;;;;;17.23;10.10;;;;;;;;;;5083330;28;20540;-81
2023/08/01 06:24:21;;;;;;;16.77;10.53;;;;;;;;;;5083660;28;20467;-81
2023/08/01 06:26:47;;;;;;;19.23;12.13;;;;;;;;;;5083318;28;20465;-81
2023/08/01 06:29:15;;;;;;;16.00;10.53;;;;;;;;;;5083122;28;20485;-81
2023/08/01 06:31:43;;;;;;;17.53;10.70;;;;;;;;;;5083839;28;20469;-81
2023/08/01 06:34:09;;;;;;;17.30;11.50;;;;;;;;;;5084257;28;20478;-81
2023/08/01 06:36:35;;;;;;;19.47;10.70;;;;;;;;;;5083408;28;20461;-81
2023/08/01 06:39:01;;;;;;;21.83;12.00;;;;;;;;;;5084543;28;21019;-81
2023/08/01 06:41:28;;;;;;;15.50;10.33;;;;;;;;;;5082900;28;20218;-81
2023/08/01 06:43:54;;;;;;;17.07;9.77;;;;;;;;;;5081195;28;21011;-80
2023/08/01 06:46:22;;;;;;;17.20;10.60;;;;;;;;;;5084496;28;20795;-81
2023/08/01 06:48:48;;;;;;;15.87;10.40;;;;;;;;;;5080178;28;20472;-81
2023/08/01 06:51:15;;;;;;;15.30;10.40;;;;;;;;;;5083747;28;20489;-81
2023/08/01 06:53:41;;;;;;;16.10;9.90;;;;;;;;;;5082451;28;20475;-81
2023/08/01 06:56:08;;;;;;;12.10;9.20;;;;;;;;;;5084800;28;20467;-81
2023/08/01 06:58:34;;;;;;;7.63;6.40;;;;;;;;;;5083357;28;20487;-80
2023/08/01 07:01:01;;;;;;;9.03;6.43;;;;;;;;;;5085346;28;20435;-81
2023/08/01 07:03:28;;;;;;;7.33;5.33;;;;;;;;;;5083195;28;21195;-81
2023/08/01 07:05:55;;;;;;;7.77;6.10;;;;;;;;;;5082872;28;20465;-80
2023/08/01 07:08:21;;;;;;;8.83;5.40;;;;;;;;;;5083572;28;20471;-80
2023/08/01 07:10:48;;;;;;;9.97;5.10;;;;;;;;;;5082736;28;20535;-81
2023/08/01 07:13:16;;;;;;;7.20;5.10;;;;;;;;;;5082774;28;20577;-81
2023/08/01 07:15:42;;;;;;;6.90;5.60;;;;;;;;;;5082521;28;20580;-81
2023/08/01 07:18:08;;;;;;;11.57;6.80;;;;;;;;;;5081485;28;20470;-80
2023/08/01 07:20:36;;;;;;;7.77;5.00;;;;;;;;;;5083407;28;20458;-81
2023/08/01 07:23:03;;;;;;;9.90;6.20;;;;;;;;;;5081714;28;20470;-80
2023/08/01 07:25:29;;;;;;;6.30;5.70;;;;;;;;;;5084074;28;20442;-80
2023/08/01 07:27:56;;;;;;;10.60;5.10;;;;;;;;;;5082337;28;20854;-80
2023/08/01 07:30:22;;;;;;;6.70;3.97;;;;;;;;;;5083357;28;20482;-80
2023/08/01 07:32:48;;;;;;;8.23;3.80;;;;;;;;;;5082509;28;20474;-80
2023/08/01 07:35:15;;;;;;;6.50;4.50;;;;;;;;;;5084476;28;20513;-80
2023/08/01 07:37:43;;;;;;;6.47;3.40;;;;;;;;;;5082342;28;20466;-81
2023/08/01 07:40:10;;;;;;;9.70;3.40;;;;;;;;;;5084186;28;20438;-80
2023/08/01 07:42:36;;;;;;;7.30;2.90;;;;;;;;;;5079373;28;20475;-81
2023/08/01 07:45:03;;;;;;;4.80;2.80;;;;;;;;;;5081025;28;20458;-80
2023/08/01 07:47:30;;;;;;;4.53;2.70;;;;;;;;;;5081940;28;20473;-80
2023/08/01 07:49:57;;;;;;;3.37;2.53;;;;;;;;;;5082998;28;20549;-81
2023/08/01 07:52:23;;;;;;;6.93;2.97;;;;;;;;;;5080101;28;20471;-81
2023/08/01 07:54:53;;;;;;;6.73;3.37;;;;;;;;;;5081951;28;20438;-81
2023/08/01 07:57:19;;;;;;;7.33;2.83;;;;;;;;;;5082974;28;20499;-80
2023/08/01 07:59:45;;;;;;;7.60;3.40;;;;;;;;;;5082030;28;20459;-80
2023/08/01 08:02:14;;;;;;;4.70;3.57;;;;;;;;;;5083225;28;20463;-81
2023/08/01 08:04:40;;;;;;;4.43;2.60;;;;;;;;;;5083397;28;20461;-81
2023/08/01 08:07:06;;;;;;;5.53;2.63;;;;;;;;;;5081532;28;20465;-81
2023/08/01 08:09:33;;;;;;;3.70;3.30;;;;;;;;;;5079572;28;20491;-81
2023/08/01 08:12:00;;;;;;;3.57;2.77;;;;;;;;;;5083300;28;20482;-82
2023/08/01 08:14:27;;;;;;;2.53;2.07;;;;;;;;;;5083256;28;20459;-81
2023/08/01 08:16:54;;;;;;;7.53;2.90;;;;;;;;;;5081701;28;20440;-81
2023/08/01 08:19:20;;;;;;;4.63;2.90;;;;;;;;;;5084986;28;20481;-81
2023/08/01 08:21:46;;;;;;;5.90;3.87;;;;;;;;;;5082878;28;20474;-81
2023/08/01 08:24:13;;;;;;;8.80;3.20;;;;;;;;;;5083240;28;20478;-81
2023/08/01 08:26:39;;;;;;;5.27;3.40;;;;;;;;;;5083327;28;20442;-81
2023/08/01 08:29:07;;;;;;;4.90;3.30;;;;;;;;;;5081092;28;20487;-81
2023/08/01 08:31:34;;;;;;;5.40;4.33;;;;;;;;;;5082768;28;20491;-81
2023/08/01 08:34:00;;;;;;;5.40;3.63;;;;;;;;;;5082037;28;20462;-81
2023/08/01 08:36:27;;;;;;;8.20;3.20;;;;;;;;;;5081550;28;20443;-81
2023/08/01 08:38:54;;;;;;;8.23;3.43;;;;;;;;;;5082642;28;20995;-81
2023/08/01 08:41:21;;;;;;;5.93;2.73;;;;;;;;;;5080588;28;20442;-81
2023/08/01 08:43:48;;;;;;;6.97;2.70;;;;;;;;;;5082481;28;20470;-81
2023/08/01 08:46:19;;;;;;;6.87;2.93;;;;;;;;;;5083095;28;20442;-81
2023/08/01 08:48:48;;;;;;;6.23;2.90;;;;;;;;;;5083461;28;20470;-81
2023/08/01 08:51:15;;;;;;;6.03;2.60;;;;;;;;;;5083579;28;20489;-81
2023/08/01 08:53:46;;;;;;;4.23;2.73;;;;;;;;;;5079079;28;20479;-81
2023/08/01 08:56:12;;;;;;;7.40;2.47;;;;;;;;;;5082235;28;20984;-81
2023/08/01 08:58:40;;;;;;;2.90;2.40;;;;;;;;;;5082094;28;20469;-82
2023/08/01 09:01:08;;;;;;;3.43;1.93;;;;;;;;;;5080532;28;21009;-81
2023/08/01 09:03:36;;;;;;;4.90;2.50;;;;;;;;;;5076529;28;20540;-81
2023/08/01 09:06:04;;;;;;;2.57;1.93;;;;;;;;;;5079365;28;20466;-81
2023/08/01 09:08:34;;;;;;;6.53;2.33;;;;;;;;;;5080636;28;20470;-81
2023/08/01 09:11:01;;;;;;;4.43;1.97;;;;;;;;;;5082025;28;20489;-81
2023/08/01 09:13:28;;;;;;;2.90;1.77;;;;;;;;;;5081365;28;20532;-81
2023/08/01 09:15:55;;;;;;;2.77;2.03;;;;;;;;;;5079883;28;20462;-81
2023/08/01 09:18:22;;;;;;;1.90;1.73;;;;;;;;;;5080707;28;20849;-81
2023/08/01 09:20:51;;;;;;;2.83;1.73;;;;;;;;;;5082179;28;20430;-82
2023/08/01 09:23:18;;;;;;;2.17;1.80;;;;;;;;;;5080815;28;20527;-81
2023/08/01 09:25:45;;;;;;;2.17;1.80;;;;;;;;;;5081734;28;20965;-81
2023/08/01 09:28:20;;;;;;;4.03;1.57;;;;;;;;;;5081159;28;20478;-81
2023/08/01 09:30:46;;;;;;;2.57;1.97;;;;;;;;;;5085539;28;21034;-81
2023/08/01 09:33:12;;;;;;;4.10;1.67;;;;;;;;;;5083840;28;20489;-81
2023/08/01 09:35:39;;;;;;;2.83;1.63;;;;;;;;;;5081624;28;20434;-81
2023/08/01 09:38:07;;;;;;;3.73;1.80;;;;;;;;;;5083357;28;20472;-82
2023/08/01 09:40:36;;;;;;;2.93;1.73;;;;;;;;;;5086310;28;20442;-81
2023/08/01 09:43:03;;;;;;;3.10;1.77;;;;;;;;;;5084560;28;20477;-81
2023/08/01 09:45:29;;;;;;;2.27;1.70;;;;;;;;;;5084201;28;20461;-82
2023/08/01 09:47:56;;;;;;;1.70;1.50;;;;;;;;;;5085074;28;20562;-81
2023/08/01 09:50:23;;;;;;;2.87;1.60;;;;;;;;;;5084101;28;20485;-81
2023/08/01 09:52:52;;;;;;;5.73;1.53;;;;;;;;;;5085070;28;20479;-82
2023/08/01 09:55:20;;;;;;;3.70;1.50;;;;;;;;;;5084188;28;20469;-82
2023/08/01 09:57:49;;;;;;;2.87;1.90;;;;;;;;;;5081096;28;20462;-81
2023/08/01 10:00:16;;;;;;;4.50;2.03;;;;;;;;;;5083901;28;20465;-81
2023/08/01 10:02:45;;;;;;;6.33;2.50;;;;;;;;;;5082113;28;20478;-82
2023/08/01 10:05:12;;;;;;;3.50;1.90;;;;;;;;;;5083293;28;20925;-82
2023/08/01 10:07:39;;;;;;;3.27;1.70;;;;;;;;;;5084558;28;20477;-82
2023/08/01 10:10:06;;;;;;;2.90;2.40;;;;;;;;;;5083619;28;20438;-82
2023/08/01 10:12:34;;;;;;;3.93;2.40;;;;;;;;;;5084252;28;20469;-82
2023/08/01 10:15:01;;;;;;;3.20;1.83;;;;;;;;;;5082722;28;20455;-81
2023/08/01 10:17:28;;;;;;;2.03;1.50;;;;;;;;;;5082330;28;20466;-81
2023/08/01 10:19:55;;;;;;;1.50;1.37;;;;;;;;;;5084855;28;20443;-82
2023/08/01 10:22:22;;;;;;;2.60;2.00;;;;;;;;;;5082983;28;20514;-82
2023/08/01 10:24:49;;;;;;;2.33;1.80;;;;;;;;;;5083279;28;20459;-81
2023/08/01 10:27:19;;;;;;;2.90;1.40;;;;;;;;;;5083678;28;20454;-82
2023/08/01 10:29:56;;;;;;;3.57;1.73;;;;;;;;;;5082747;28;20803;-82
2023/08/01 10:32:28;;;;;;;5.13;1.77;;;;;;;;;;5085350;28;20471;-82
2023/08/01 10:34:54;;;;;;;4.70;2.03;;;;;;;;;;5082682;28;20435;-82
2023/08/01 10:37:22;;;;;;;1.60;1.40;;;;;;;;;;5083051;28;20997;-81
2023/08/01 10:39:56;;;;;;;3.00;2.50;;;;;;;;;;5083023;28;20482;-82
2023/08/01 10:42:23;;;;;;;2.80;1.67;;;;;;;;;;5081437;28;20470;-81
2023/08/01 10:44:50;;;;;;;5.63;1.70;;;;;;;;;;5083505;28;20985;-82
2023/08/01 10:47:26;;;;;;;2.53;2.10;;;;;;;;;;5084719;28;21013;-81
2023/08/01 10:49:53;;;;;;;2.20;2.00;;;;;;;;;;5082800;28;20446;-81
2023/08/01 10:52:20;;;;;;;2.13;1.87;;;;;;;;;;5082531;28;20459;-80
2023/08/01 10:54:47;;;;;;;3.70;1.70;;;;;;;;;;5083485;28;20442;-81
2023/08/01 10:57:16;;;;;;;2.90;1.50;;;;;;;;;;5083510;28;20960;-82
2023/08/01 10:59:43;;;;;;;2.73;2.30;;;;;;;;;;5080893;28;21002;-82
2023/08/01 11:02:11;;;;;;;1.70;1.50;;;;;;;;;;5083612;28;20979;-81
2023/08/01 11:04:37;;;;;;;6.00;2.87;;;;;;;;;;5082276;28;20499;-81
2023/08/01 11:07:05;;;;;;;2.67;2.27;;;;;;;;;;5082007;28;20477;-82
2023/08/01 11:09:31;;;;;;;5.80;1.90;;;;;;;;;;5081651;28;20457;-81
2023/08/01 11:11:58;;;;;;;3.60;1.80;;;;;;;;;;5085285;28;20486;-82
2023/08/01 11:14:26;;;;;;;2.90;1.20;;;;;;;;;;5080367;28;20467;-81
2023/08/01 11:16:54;;;;;;;5.13;1.50;;;;;;;;;;5084752;28;20444;-82
2023/08/01 11:19:23;;;;;;;3.20;1.40;;;;;;;;;;5084398;28;20467;-82
2023/08/01 11:21:50;;;;;;;2.50;1.40;;;;;;;;;;5083666;28;20453;-81
2023/08/01 11:24:17;;;;;;;1.50;1.23;;;;;;;;;;5084202;28;21017;-82
2023/08/01 11:26:43;;;;;;;2.70;1.20;;;;;;;;;;5083032;28;20447;-81
2023/08/01 11:29:12;;;;;;;6.30;1.30;;;;;;;;;;5081994;28;20475;-81
2023/08/01 11:31:38;;;;;;;4.43;1.10;;;;;;;;;;5083181;28;20478;-81
2023/08/01 11:34:04;;;;;;;1.07;1.00;;;;;;;;;;5081475;28;20477;-81
2023/08/01 11:36:32;;;;;;;1.77;1.63;;;;;;;;;;5081813;28;20526;-81
2023/08/01 11:38:59;;;;;;;2.43;1.30;;;;;;;;;;5080759;28;21008;-81
2023/08/01 11:41:27;;;;;;;4.10;1.60;;;;;;;;;;5084914;28;20434;-81
2023/08/01 11:43:54;;;;;;;2.27;1.20;;;;;;;;;;5082644;28;20466;-81
2023/08/01 11:46:21;;;;;;;1.80;1.47;;;;;;;;;;5082947;28;20545;-82
2023/08/01 11:48:49;;;;;;;3.10;1.90;;;;;;;;;;5080285;28;20829;-81
2023/08/01 11:51:16;;;;;;;3.07;1.17;;;;;;;;;;5084141;28;20505;-82
2023/08/01 11:53:44;;;;;;;3.50;1.73;;;;;;;;;;5078180;28;20470;-82
2023/08/01 11:56:20;;;;;;;2.03;1.40;;;;;;;;;;5083229;28;20447;-82
2023/08/01 11:58:47;;;;;;;2.13;1.60;;;;;;;;;;5079626;28;20482;-81
2023/08/01 12:01:13;;;;;;;4.27;1.90;;;;;;;;;;5063973;28;21001;-81
2023/08/01 12:03:44;;;;;;;1.93;1.37;;;;;;;;;;5081590;28;20469;-81
2023/08/01 12:06:13;;;;;;;5.17;3.00;;;;;;;;;;5083201;28;20434;-81
2023/08/01 12:08:39;;;;;;;3.50;2.20;;;;;;;;;;5079384;28;20842;-81
2023/08/01 12:11:17;;;;;;;2.97;1.33;;;;;;;;;;5082396;28;20462;-81
2023/08/01 12:13:44;;;;;;;4.30;1.57;;;;;;;;;;5079074;28;20474;-81
2023/08/01 12:16:11;;;;;;;3.60;1.70;;;;;;;;;;5080985;28;20960;-81
2023/08/01 12:18:39;;;;;;;2.77;1.97;;;;;;;;;;5080908;28;20470;-81
2023/08/01 12:21:06;;;;;;;4.50;1.67;;;;;;;;;;5083081;28;20446;-82
2023/08/01 12:23:32;;;;;;;4.63;2.00;;;;;;;;;;5081912;28;20466;-81
2023/08/01 12:25:59;;;;;;;5.17;2.17;;;;;;;;;;5083389;28;20465;-81
2023/08/01 12:28:26;;;;;;;3.10;1.50;;;;;;;;;;5080550;28;20467;-81
2023/08/01 12:30:53;;;;;;;3.33;1.70;;;;;;;;;;5082819;28;20458;-81
2023/08/01 12:33:20;;;;;;;3.77;2.00;;;;;;;;;;5078031;28;20467;-80
2023/08/01 12:35:46;;;;;;;2.33;1.20;;;;;;;;;;5081491;28;20440;-81
2023/08/01 12:38:14;;;;;;;2.17;1.50;;;;;;;;;;5080416;28;20474;-81
2023/08/01 12:40:42;;;;;;;3.97;1.43;;;;;;;;;;5078051;28;20459;-81
2023/08/01 12:43:08;;;;;;;2.33;1.80;;;;;;;;;;5081843;28;20493;-81
2023/08/01 12:45:37;;;;;;;3.37;1.50;;;;;;;;;;5081764;28;20470;-81
2023/08/01 12:48:04;;;;;;;4.73;1.60;;;;;;;;;;5082573;28;20480;-81
2023/08/01 12:50:30;;;;;;;6.13;2.07;;;;;;;;;;5081551;28;20466;-81
2023/08/01 12:52:57;;;;;;;2.53;1.10;;;;;;;;;;5079821;28;20474;-81
2023/08/01 12:55:23;;;;;;;1.80;1.70;;;;;;;;;;5081502;28;20450;-81
2023/08/01 12:57:49;;;;;;;2.33;1.50;;;;;;;;;;5080264;28;20475;-82
2023/08/01 13:00:16;;;;;;;2.07;1.63;;;;;;;;;;5080704;28;20454;-81
2023/08/01 13:02:44;;;;;;;2.10;1.57;;;;;;;;;;5082499;28;20474;-81
2023/08/01 13:05:11;;;;;;;3.83;1.47;;;;;;;;;;5078623;28;20466;-81
2023/08/01 13:07:37;;;;;;;1.40;1.30;;;;;;;;;;5080125;28;20760;-81
2023/08/01 13:10:04;;;;;;;1.93;1.47;;;;;;;;;;5081491;28;20446;-81
2023/08/01 13:12:30;;;;;;;1.97;1.30;;;;;;;;;;5081356;28;20469;-81
2023/08/01 13:14:57;;;;;;;3.10;1.53;;;;;;;;;;5078969;28;20451;-80
2023/08/01 13:17:23;;;;;;;2.20;1.60;;;;;;;;;;5081021;28;20477;-80
2023/08/01 13:19:51;;;;;;;3.80;1.60;;;;;;;;;;5082070;28;20443;-80
2023/08/01 13:22:18;;;;;;;3.10;1.63;;;;;;;;;;5081638;28;20454;-81
2023/08/01 13:24:45;;;;;;;2.70;2.27;;;;;;;;;;5081845;28;20454;-80
2023/08/01 13:27:13;;;;;;;1.63;1.53;;;;;;;;;;5079112;28;20462;-80
2023/08/01 13:29:40;;;;;;;1.83;1.60;;;;;;;;;;5080504;28;20455;-80
2023/08/01 13:32:07;;;;;;;3.97;1.80;;;;;;;;;;5080313;28;20482;-81
2023/08/01 13:34:33;;;;;;;3.77;2.30;;;;;;;;;;5080116;28;20446;-80
2023/08/01 13:37:01;;;;;;;3.53;2.43;;;;;;;;;;5080912;28;20450;-81
2023/08/01 13:39:27;;;;;;;2.47;2.10;;;;;;;;;;5080780;28;20461;-80
2023/08/01 13:41:54;;;;;;;2.80;1.60;;;;;;;;;;5079505;28;20477;-81
2023/08/01 13:44:20;;;;;;;2.20;1.80;;;;;;;;;;5080242;28;20466;-81
2023/08/01 13:46:48;;;;;;;2.23;1.33;;;;;;;;;;5081297;28;20459;-81
2023/08/01 13:49:14;;;;;;;2.13;1.70;;;;;;;;;;5080216;28;20483;-80
2023/08/01 13:51:41;;;;;;;2.47;1.97;;;;;;;;;;5083241;28;20453;-80
2023/08/01 13:54:09;;;;;;;1.70;1.57;;;;;;;;;;5080125;28;20477;-81
2023/08/01 13:56:35;;;;;;;7.20;1.43;;;;;;;;;;5080785;28;20458;-81
2023/08/01 13:59:02;;;;;;;4.90;2.17;;;;;;;;;;5080802;28;20471;-82
2023/08/01 14:01:28;;;;;;;2.00;1.70;;;;;;;;;;5080967;28;21064;-82
2023/08/01 14:03:54;;;;;;;3.50;1.27;;;;;;;;;;5081811;28;20466;-81
2023/08/01 14:06:21;;;;;;;6.00;1.97;;;;;;;;;;5080070;28;20443;-81
2023/08/01 14:08:47;;;;;;;5.37;1.77;;;;;;;;;;5079334;28;20471;-81
2023/08/01 14:11:15;;;;;;;4.70;1.67;;;;;;;;;;5080804;28;20445;-81
2023/08/01 14:13:41;;;;;;;4.50;2.13;;;;;;;;;;5077990;28;20467;-81
2023/08/01 14:16:08;;;;;;;2.40;1.67;;;;;;;;;;5083088;28;20454;-81
2023/08/01 14:18:34;;;;;;;3.57;2.20;;;;;;;;;;5085686;28;20465;-81
2023/08/01 14:21:01;;;;;;;4.10;2.73;;;;;;;;;;5083234;28;20834;-81
2023/08/01 14:23:28;;;;;;;3.27;1.93;;;;;;;;;;5082753;28;20996;-81
2023/08/01 14:25:54;;;;;;;2.63;2.00;;;;;;;;;;5083500;28;20431;-81
2023/08/01 14:28:22;;;;;;;4.43;2.00;;;;;;;;;;5085143;28;20487;-81
2023/08/01 14:30:48;;;;;;;3.00;1.90;;;;;;;;;;5085230;28;20458;-81
2023/08/01 14:33:15;;;;;;;3.23;1.67;;;;;;;;;;5082253;28;20474;-81